Time;durP1;ratioP1;P1;durP2;ratioP2;P2;SDS_P1;SDS_P2;PMS_P1;PMS_P2;Temp;Humidity;BMP_temperature;BMP_pressure;BME280_temperature;BME280_humidity;BME280_pressure;Samples;Min_cycle;Max_cycle;Signal;HPM_P1;HPM_P2
2022/08/02 00:01:41;;;;;;;7.18;4.95;;;11.10;99.90;;;;;;4997063;28;20398;-74
2022/08/02 00:04:07;;;;;;;6.55;4.72;;;11.10;99.90;;;;;;4980705;28;20045;-75
2022/08/02 00:06:33;;;;;;;6.00;4.57;;;11.10;99.90;;;;;;4994603;28;20049;-75
2022/08/02 00:08:59;;;;;;;8.07;5.35;;;11.10;99.90;;;;;;4996332;28;20063;-75
2022/08/02 00:11:25;;;;;;;5.95;5.43;;;11.10;99.90;;;;;;4980535;28;20080;-75
2022/08/02 00:13:50;;;;;;;9.20;6.22;;;11.10;99.90;;;;;;4978388;28;20038;-75
2022/08/02 00:16:16;;;;;;;7.38;5.13;;;11.10;99.90;;;;;;4994730;28;20050;-76
2022/08/02 00:18:42;;;;;;;9.23;6.45;;;11.10;99.90;;;;;;4996106;28;20065;-75
2022/08/02 00:21:08;;;;;;;9.25;6.55;;;11.10;99.90;;;;;;4996495;28;20068;-75
2022/08/02 00:23:33;;;;;;;7.15;5.85;;;11.10;99.90;;;;;;4995609;28;20573;-75
2022/08/02 00:25:59;;;;;;;6.50;5.85;;;11.10;99.90;;;;;;5002220;28;20501;-75
2022/08/02 00:28:25;;;;;;;7.55;6.10;;;11.10;99.90;;;;;;4994795;28;20124;-74
2022/08/02 00:30:51;;;;;;;8.73;6.13;;;11.10;99.90;;;;;;4995782;28;20046;-74
2022/08/02 00:33:17;;;;;;;8.23;6.10;;;11.10;99.90;;;;;;4984938;28;20042;-74
2022/08/02 00:35:46;;;;;;;7.78;6.40;;;11.10;99.90;;;;;;4995253;28;20049;-76
2022/08/02 00:38:12;;;;;;;8.15;7.20;;;11.10;99.90;;;;;;4994838;28;20092;-75
2022/08/02 00:40:38;;;;;;;8.68;6.55;;;11.10;99.90;;;;;;4996045;28;20034;-75
2022/08/02 00:43:06;;;;;;;8.98;6.80;;;11.10;99.90;;;;;;4995119;28;20046;-75
2022/08/02 00:45:34;;;;;;;7.35;6.40;;;11.10;99.90;;;;;;4987854;28;20033;-76
2022/08/02 00:48:00;;;;;;;7.63;5.60;;;11.10;99.90;;;;;;4992266;28;20057;-75
2022/08/02 00:50:27;;;;;;;7.05;6.25;;;11.10;99.90;;;;;;4994556;28;20376;-75
2022/08/02 00:52:53;;;;;;;8.25;5.95;;;11.10;99.90;;;;;;4995501;28;20441;-76
2022/08/02 00:55:19;;;;;;;6.97;6.05;;;11.10;99.90;;;;;;4995826;28;20418;-75
2022/08/02 00:57:44;;;;;;;7.63;5.47;;;11.00;99.90;;;;;;4992618;28;20069;-75
2022/08/02 01:00:11;;;;;;;8.43;6.20;;;11.00;99.90;;;;;;4989819;28;20164;-74
2022/08/02 01:02:36;;;;;;;9.27;6.40;;;11.00;99.90;;;;;;4978081;28;20057;-75
2022/08/02 01:05:03;;;;;;;7.32;6.03;;;10.90;99.90;;;;;;4987964;28;20049;-75
2022/08/02 01:07:28;;;;;;;7.60;6.45;;;10.90;99.90;;;;;;4993207;28;20096;-75
2022/08/02 01:09:54;;;;;;;7.93;5.75;;;10.90;99.90;;;;;;4978596;28;20085;-75
2022/08/02 01:12:20;;;;;;;8.13;5.70;;;10.90;99.90;;;;;;4979107;28;20049;-76
2022/08/02 01:14:49;;;;;;;10.18;5.85;;;10.80;99.90;;;;;;4995855;28;20042;-76
2022/08/02 01:17:26;;;;;;;8.77;5.88;;;10.80;99.90;;;;;;4974038;28;20053;-76
2022/08/02 01:20:20;;;;;;;8.23;5.68;;;10.80;99.90;;;;;;4971042;28;20467;-74
2022/08/02 01:23:13;;;;;;;7.22;6.13;;;10.80;99.90;;;;;;4995441;28;20402;-74
2022/08/02 01:25:57;;;;;;;9.15;6.32;;;10.70;99.90;;;;;;4977153;28;20042;-74
2022/08/02 01:28:48;;;;;;;8.45;6.28;;;10.70;99.90;;;;;;4970771;28;20047;-75
2022/08/02 01:31:34;;;;;;;10.00;7.15;;;10.70;99.90;;;;;;4989903;28;20089;-76
2022/08/02 01:34:10;;;;;;;11.85;7.78;;;10.70;99.90;;;;;;4959596;28;20379;-75
2022/08/02 01:36:40;;;;;;;7.90;7.10;;;10.60;99.90;;;;;;4975959;28;20050;-76
2022/08/02 01:39:10;;;;;;;10.10;6.47;;;10.70;99.90;;;;;;4975009;28;20576;-76
2022/08/02 01:41:37;;;;;;;9.38;6.45;;;10.70;99.90;;;;;;4993095;28;20080;-75
2022/08/02 01:44:05;;;;;;;11.05;7.07;;;10.60;99.90;;;;;;4995155;28;20375;-76
2022/08/02 01:46:32;;;;;;;7.60;6.63;;;10.60;99.90;;;;;;4978870;28;20095;-76
2022/08/02 01:49:03;;;;;;;9.73;7.30;;;10.50;99.90;;;;;;4993576;28;20069;-75
2022/08/02 01:54:18;;;;;;;11.10;7.78;;;10.50;99.90;;;;;;4994501;28;20104;-75
2022/08/02 01:56:45;;;;;;;10.23;7.50;;;10.50;99.90;;;;;;4985251;28;20097;-74
2022/08/02 01:59:15;;;;;;;12.98;8.70;;;10.50;99.90;;;;;;4985018;28;20436;-75
2022/08/02 02:01:42;;;;;;;12.07;8.88;;;10.50;99.90;;;;;;4982967;28;20094;-74
2022/08/02 02:04:09;;;;;;;13.18;9.60;;;10.50;99.90;;;;;;4994454;28;20081;-75
2022/08/02 02:06:36;;;;;;;14.75;10.38;;;10.50;99.90;;;;;;4994921;28;20083;-75
2022/08/02 02:09:03;;;;;;;14.70;10.43;;;10.50;99.90;;;;;;4971165;28;20052;-75
2022/08/02 02:11:31;;;;;;;12.73;10.45;;;10.60;99.90;;;;;;4994503;28;20042;-75
2022/08/02 02:14:00;;;;;;;13.10;9.25;;;10.60;99.90;;;;;;4992618;28;20054;-75
2022/08/02 02:16:27;;;;;;;14.50;8.75;;;10.70;99.90;;;;;;4977642;28;20049;-75
2022/08/02 02:18:53;;;;;;;13.73;9.00;;;10.60;99.90;;;;;;4984360;28;20398;-75
2022/08/02 02:21:19;;;;;;;9.90;8.27;;;10.60;99.90;;;;;;5006215;28;20398;-75
2022/08/02 02:23:45;;;;;;;11.15;8.48;;;10.60;99.90;;;;;;4993623;28;20046;-75
2022/08/02 02:26:13;;;;;;;12.23;9.18;;;10.60;99.90;;;;;;4994439;28;20042;-75
2022/08/02 02:28:41;;;;;;;13.55;8.50;;;10.60;99.90;;;;;;4994043;28;20046;-75
2022/08/02 02:31:10;;;;;;;10.00;8.70;;;10.50;99.90;;;;;;4994445;28;20095;-75
2022/08/02 02:33:42;;;;;;;10.50;8.43;;;10.60;99.90;;;;;;4994240;28;20042;-75
2022/08/02 02:36:10;;;;;;;12.85;9.80;;;10.50;99.90;;;;;;4978199;28;20383;-75
2022/08/02 02:38:37;;;;;;;13.90;9.02;;;10.60;99.90;;;;;;4993920;28;20037;-75
2022/08/02 02:41:05;;;;;;;11.32;9.07;;;10.60;99.90;;;;;;4994422;28;20033;-75
2022/08/02 02:43:33;;;;;;;13.70;9.18;;;10.60;99.90;;;;;;4994223;28;20129;-75
2022/08/02 02:46:02;;;;;;;13.90;9.60;;;10.60;99.90;;;;;;4994430;28;20068;-74
2022/08/02 02:48:29;;;;;;;13.57;10.05;;;10.60;99.90;;;;;;4994156;28;20046;-74
2022/08/02 02:50:56;;;;;;;13.00;9.95;;;10.60;99.90;;;;;;4994062;28;20080;-74
2022/08/02 02:53:22;;;;;;;13.68;10.88;;;10.70;99.90;;;;;;4977760;28;20042;-75
2022/08/02 02:55:48;;;;;;;15.20;10.93;;;10.70;99.90;;;;;;4994173;28;20092;-75
2022/08/02 02:58:15;;;;;;;11.90;9.32;;;10.70;99.90;;;;;;4993843;28;20038;-75
2022/08/02 03:03:25;;;;;;;14.90;9.52;;;10.70;99.90;;;;;;4978380;28;20087;-75
2022/08/02 03:05:51;;;;;;;12.02;9.63;;;10.70;99.90;;;;;;4982066;28;20049;-75
2022/08/02 03:08:17;;;;;;;10.43;9.27;;;10.70;99.90;;;;;;4977082;28;20045;-75
2022/08/02 03:10:46;;;;;;;12.95;9.73;;;10.70;99.90;;;;;;4984576;28;20498;-75
2022/08/02 03:13:12;;;;;;;14.27;9.63;;;10.60;99.90;;;;;;4977597;28;20490;-75
2022/08/02 03:15:39;;;;;;;14.77;9.88;;;10.60;99.90;;;;;;4994369;28;20049;-75
2022/08/02 03:18:08;;;;;;;11.90;9.15;;;10.70;99.90;;;;;;4988121;28;20034;-75
2022/08/02 03:20:33;;;;;;;12.57;10.40;;;10.60;99.90;;;;;;4977406;28;20044;-75
2022/08/02 03:22:59;;;;;;;17.08;9.93;;;10.60;99.90;;;;;;5010031;28;20238;-75
2022/08/02 03:25:25;;;;;;;13.02;10.40;;;10.60;99.90;;;;;;4993924;28;20041;-75
2022/08/02 03:27:51;;;;;;;13.95;10.38;;;10.60;99.90;;;;;;4996689;28;20473;-75
2022/08/02 03:30:16;;;;;;;15.07;9.85;;;10.60;99.90;;;;;;4997340;28;20045;-75
2022/08/02 03:32:47;;;;;;;11.55;10.35;;;10.60;99.90;;;;;;4997147;28;20042;-75
2022/08/02 03:35:15;;;;;;;15.43;10.38;;;10.60;99.90;;;;;;4997540;28;20042;-75
2022/08/02 03:37:42;;;;;;;14.73;9.63;;;10.60;99.90;;;;;;4996984;28;20060;-75
2022/08/02 03:40:10;;;;;;;12.10;10.60;;;10.60;99.90;;;;;;4997581;28;20422;-75
2022/08/02 03:42:36;;;;;;;12.30;9.65;;;10.60;99.90;;;;;;4980819;28;20037;-75
2022/08/02 03:45:03;;;;;;;13.07;10.20;;;10.70;99.90;;;;;;4997233;28;20038;-75
2022/08/02 03:47:30;;;;;;;11.35;9.88;;;10.60;99.90;;;;;;4997086;28;20046;-75
2022/08/02 03:49:57;;;;;;;14.45;10.10;;;10.60;99.90;;;;;;4997177;28;20125;-75
2022/08/02 03:52:25;;;;;;;11.50;9.90;;;10.60;99.90;;;;;;4997181;28;20046;-75
2022/08/02 03:54:50;;;;;;;14.52;10.35;;;10.60;99.90;;;;;;4996569;28;20446;-75
2022/08/02 03:57:16;;;;;;;11.20;10.07;;;10.60;99.90;;;;;;4996561;28;20053;-75
2022/08/02 03:59:45;;;;;;;13.68;10.23;;;10.60;99.90;;;;;;4996740;28;20042;-75
2022/08/02 04:02:12;;;;;;;14.70;10.38;;;10.70;99.90;;;;;;4996872;28;20490;-75
2022/08/02 04:04:37;;;;;;;12.68;9.90;;;10.70;99.90;;;;;;4996920;28;20042;-75
2022/08/02 04:07:03;;;;;;;10.95;9.52;;;10.70;99.90;;;;;;4996451;28;20516;-75
2022/08/02 04:09:29;;;;;;;14.68;10.75;;;10.70;99.90;;;;;;4980614;28;20038;-75
2022/08/02 04:11:54;;;;;;;12.65;9.52;;;10.80;99.90;;;;;;4978778;28;20470;-75
2022/08/02 04:14:20;;;;;;;14.45;10.00;;;10.80;99.90;;;;;;4996132;28;20038;-75
2022/08/02 04:17:00;;;;;;;13.65;9.25;;;10.80;99.90;;;;;;4996715;28;20545;-75
2022/08/02 04:19:52;;;;;;;13.23;8.80;;;10.90;99.90;;;;;;4977106;28;20141;-75
2022/08/02 04:22:24;;;;;;;13.30;9.10;;;10.90;99.90;;;;;;4978516;28;20065;-75
2022/08/02 04:24:56;;;;;;;15.23;10.35;;;10.90;99.90;;;;;;4977175;28;20042;-75
2022/08/02 04:27:22;;;;;;;14.02;9.93;;;11.00;99.90;;;;;;4992127;28;20038;-75
2022/08/02 04:29:48;;;;;;;14.30;9.75;;;11.00;99.90;;;;;;4979620;28;20037;-75
2022/08/02 04:32:15;;;;;;;13.23;10.18;;;11.00;99.90;;;;;;4996385;28;20446;-75
2022/08/02 04:34:42;;;;;;;12.10;9.20;;;11.10;99.90;;;;;;4996275;28;20135;-75
2022/08/02 04:37:10;;;;;;;11.35;9.25;;;11.10;99.90;;;;;;4995923;28;20494;-75
2022/08/02 04:39:35;;;;;;;13.25;9.57;;;11.10;99.90;;;;;;4979321;28;20042;-75
2022/08/02 04:42:01;;;;;;;13.02;9.38;;;11.10;99.90;;;;;;4995805;28;20041;-75
2022/08/02 04:44:27;;;;;;;11.32;9.20;;;11.20;99.90;;;;;;4996406;28;20041;-75
2022/08/02 04:46:54;;;;;;;15.02;9.77;;;11.20;99.90;;;;;;4995797;28;20097;-75
2022/08/02 04:49:19;;;;;;;11.50;9.20;;;11.20;99.90;;;;;;4977140;28;20073;-75
2022/08/02 04:51:45;;;;;;;11.77;8.85;;;11.30;99.90;;;;;;4976628;28;20588;-75
2022/08/02 04:54:11;;;;;;;11.43;9.23;;;11.40;99.90;;;;;;4976399;28;20053;-75
2022/08/02 04:56:37;;;;;;;11.38;9.15;;;11.40;99.90;;;;;;4985317;28;20048;-75
2022/08/02 04:59:04;;;;;;;12.90;9.20;;;11.40;99.90;;;;;;4994987;28;20036;-75
2022/08/02 05:01:29;;;;;;;14.20;10.10;;;11.50;99.90;;;;;;4996070;28;20465;-75
2022/08/02 05:03:55;;;;;;;11.00;9.27;;;11.50;99.90;;;;;;4995284;28;20073;-75
2022/08/02 05:06:20;;;;;;;12.02;10.00;;;11.60;99.90;;;;;;4995317;28;20062;-75
2022/08/02 05:08:47;;;;;;;11.23;9.07;;;11.70;99.90;;;;;;4985575;28;20050;-75
2022/08/02 05:11:13;;;;;;;12.70;9.50;;;11.80;99.90;;;;;;4960626;28;20097;-75
2022/08/02 05:13:40;;;;;;;11.25;8.63;;;12.00;99.90;;;;;;4970864;28;20411;-75
2022/08/02 05:16:06;;;;;;;14.85;9.38;;;12.30;99.90;;;;;;4995279;28;20065;-75
2022/08/02 05:18:32;;;;;;;13.30;8.43;;;12.50;99.90;;;;;;4994383;28;20096;-75
2022/08/02 05:20:57;;;;;;;10.00;9.00;;;12.70;99.90;;;;;;4995420;28;20186;-75
2022/08/02 05:23:23;;;;;;;11.18;7.45;;;12.90;99.90;;;;;;4995510;28;20054;-75
2022/08/02 05:25:48;;;;;;;9.57;7.07;;;13.20;99.90;;;;;;4995459;28;20073;-75
2022/08/02 05:28:14;;;;;;;9.75;7.05;;;13.40;99.90;;;;;;4990977;28;20490;-75
2022/08/02 05:30:40;;;;;;;9.57;6.88;;;13.70;99.90;;;;;;4995260;28;20044;-75
2022/08/02 05:33:05;;;;;;;7.82;6.05;;;13.60;99.90;;;;;;4995281;28;20046;-75
2022/08/02 05:35:32;;;;;;;7.15;5.88;;;13.90;99.90;;;;;;4995414;28;20049;-75
2022/08/02 05:37:57;;;;;;;9.75;6.40;;;13.90;99.90;;;;;;4994533;28;20042;-75
2022/08/02 05:40:23;;;;;;;9.65;6.30;;;14.00;99.90;;;;;;4994924;28;20038;-75
2022/08/02 05:42:48;;;;;;;7.03;5.90;;;14.10;99.90;;;;;;4991299;28;20033;-75
2022/08/02 05:45:14;;;;;;;8.18;6.22;;;14.20;99.90;;;;;;4995315;28;20091;-75
2022/08/02 05:47:40;;;;;;;8.95;5.93;;;14.20;99.90;;;;;;4993863;28;20044;-75
2022/08/02 05:50:07;;;;;;;7.15;6.05;;;14.10;99.90;;;;;;4993081;28;20190;-75
2022/08/02 05:52:46;;;;;;;10.38;6.20;;;14.10;99.90;;;;;;4989541;28;20046;-75
2022/08/02 05:55:33;;;;;;;7.78;6.47;;;14.10;99.90;;;;;;4994918;28;20041;-75
2022/08/02 05:58:05;;;;;;;8.32;6.38;;;14.10;99.90;;;;;;4977957;28;20038;-75
2022/08/02 06:00:32;;;;;;;7.82;6.18;;;14.00;99.90;;;;;;4994561;28;20045;-75
2022/08/02 06:03:23;;;;;;;9.60;6.50;;;14.10;99.90;;;;;;4982881;28;20042;-75
2022/08/02 06:06:03;;;;;;;8.10;6.63;;;14.10;99.90;;;;;;4984189;28;20520;-75
2022/08/02 06:08:44;;;;;;;8.80;7.30;;;14.20;99.90;;;;;;4975127;28;20050;-75
2022/08/02 06:11:13;;;;;;;7.32;6.25;;;14.20;99.90;;;;;;4975406;28;20121;-75
2022/08/02 06:13:40;;;;;;;8.63;6.40;;;14.30;99.90;;;;;;4977961;28;20034;-75
2022/08/02 06:16:07;;;;;;;9.07;6.57;;;14.30;99.90;;;;;;4978646;28;20414;-75
2022/08/02 06:18:33;;;;;;;8.80;6.45;;;14.50;99.90;;;;;;4987030;28;20050;-75
2022/08/02 06:21:04;;;;;;;8.25;6.38;;;14.50;99.90;;;;;;4992516;28;20038;-75
2022/08/02 06:23:31;;;;;;;11.05;7.15;;;14.50;99.90;;;;;;4994552;28;20121;-75
2022/08/02 06:25:57;;;;;;;9.27;6.90;;;14.60;99.90;;;;;;4994733;28;20375;-75
2022/08/02 06:28:23;;;;;;;8.23;6.47;;;14.70;99.90;;;;;;4972889;28;20048;-75
2022/08/02 06:30:49;;;;;;;9.02;5.75;;;14.70;99.90;;;;;;4994294;28;20038;-75
2022/08/02 06:33:15;;;;;;;7.90;6.22;;;14.80;99.90;;;;;;4977273;28;20037;-75
2022/08/02 06:35:53;;;;;;;9.15;6.20;;;14.90;99.90;;;;;;4994037;28;20041;-75
2022/08/02 06:38:23;;;;;;;8.80;6.28;;;15.00;99.90;;;;;;4977420;28;20131;-75
2022/08/02 06:40:55;;;;;;;6.70;5.78;;;15.10;99.90;;;;;;4994248;28;20125;-75
2022/08/02 06:43:37;;;;;;;7.75;5.88;;;15.10;99.90;;;;;;4994208;28;20104;-75
2022/08/02 06:46:02;;;;;;;6.07;5.28;;;15.20;99.90;;;;;;4993482;28;20042;-75
2022/08/02 06:48:29;;;;;;;8.02;5.70;;;15.30;99.90;;;;;;4993538;28;20048;-75
2022/08/02 06:50:55;;;;;;;8.73;6.30;;;15.50;99.90;;;;;;4974701;28;20054;-75
2022/08/02 06:53:21;;;;;;;6.20;5.60;;;15.50;99.90;;;;;;4974440;28;20042;-75
2022/08/02 06:55:46;;;;;;;7.80;5.30;;;15.70;99.90;;;;;;4992690;28;20057;-74
2022/08/02 06:58:13;;;;;;;6.45;4.97;;;15.80;99.90;;;;;;4990802;28;20072;-75
2022/08/02 07:00:40;;;;;;;9.85;5.43;;;16.00;99.90;;;;;;4993387;28;20037;-74
2022/08/02 07:03:06;;;;;;;7.47;5.43;;;16.20;99.90;;;;;;4995125;28;20939;-74
2022/08/02 07:05:32;;;;;;;6.75;5.03;;;16.30;99.90;;;;;;4981460;28;20040;-75
2022/08/02 07:07:57;;;;;;;5.75;4.38;;;16.40;99.90;;;;;;4981645;28;20048;-75
2022/08/02 07:10:23;;;;;;;6.85;4.30;;;16.60;99.90;;;;;;4998009;28;20077;-75
2022/08/02 07:12:48;;;;;;;5.82;4.43;;;16.70;99.90;;;;;;4996855;28;20486;-75
2022/08/02 07:15:15;;;;;;;6.85;4.10;;;16.80;99.90;;;;;;4979655;28;20117;-75
2022/08/02 07:17:41;;;;;;;6.30;4.05;;;17.00;99.90;;;;;;4997559;28;20034;-75
2022/08/02 07:20:08;;;;;;;6.30;4.00;;;17.20;99.90;;;;;;4977419;28;20037;-75
2022/08/02 07:22:34;;;;;;;5.53;3.90;;;17.20;99.90;;;;;;4996740;28;20034;-75
2022/08/02 07:25:00;;;;;;;4.28;3.35;;;17.30;99.90;;;;;;4993251;28;20030;-75
2022/08/02 07:27:27;;;;;;;4.43;3.25;;;17.30;99.90;;;;;;4973627;28;20035;-75
2022/08/02 07:29:53;;;;;;;6.75;3.05;;;17.40;99.90;;;;;;4980957;28;20113;-75
2022/08/02 07:32:21;;;;;;;5.43;2.70;;;17.50;99.90;;;;;;4997205;28;20601;-75
2022/08/02 07:34:47;;;;;;;6.18;2.83;;;17.60;99.90;;;;;;4997404;28;20053;-75
2022/08/02 07:37:13;;;;;;;5.00;3.63;;;17.60;99.90;;;;;;4997501;28;20437;-75
2022/08/02 07:39:38;;;;;;;5.22;2.88;;;17.70;99.90;;;;;;4995502;28;20030;-75
2022/08/02 07:42:04;;;;;;;7.82;3.40;;;17.80;99.90;;;;;;4989909;28;20486;-74
2022/08/02 07:44:33;;;;;;;3.90;2.90;;;17.90;99.90;;;;;;4994088;28;20081;-74
2022/08/02 07:47:00;;;;;;;5.97;2.95;;;18.00;99.90;;;;;;4993704;28;20046;-76
2022/08/02 07:49:26;;;;;;;5.15;2.85;;;18.20;99.90;;;;;;4995214;28;20449;-75
2022/08/02 07:51:52;;;;;;;4.65;2.45;;;18.30;99.90;;;;;;4997163;28;20048;-74
2022/08/02 07:54:17;;;;;;;4.10;2.47;;;18.40;99.90;;;;;;4972022;28;20405;-75
2022/08/02 07:56:43;;;;;;;4.63;2.45;;;18.60;99.90;;;;;;4999498;28;20046;-75
2022/08/02 07:59:09;;;;;;;5.38;2.63;;;18.70;99.90;;;;;;4994912;28;20379;-75
2022/08/02 08:01:35;;;;;;;3.63;2.30;;;18.90;99.90;;;;;;4999321;28;20450;-75
2022/08/02 08:04:01;;;;;;;5.47;2.50;;;19.00;99.90;;;;;;4996737;28;20057;-75
2022/08/02 08:06:27;;;;;;;6.55;2.75;;;19.20;99.90;;;;;;4978098;28;20037;-75
2022/08/02 08:08:52;;;;;;;4.32;2.45;;;19.20;99.90;;;;;;4990063;28;20038;-75
2022/08/02 08:11:18;;;;;;;7.10;2.40;;;19.40;99.90;;;;;;4994664;28;20070;-75
2022/08/02 08:13:43;;;;;;;6.70;2.10;;;19.60;99.90;;;;;;4990092;28;20033;-76
2022/08/02 08:16:09;;;;;;;7.97;2.67;;;19.80;99.90;;;;;;4993691;28;20153;-75
2022/08/02 08:18:35;;;;;;;4.18;2.13;;;20.00;99.90;;;;;;4993733;28;20057;-75
2022/08/02 08:21:01;;;;;;;6.43;2.47;;;20.40;99.90;;;;;;4990507;28;20062;-75
2022/08/02 08:23:26;;;;;;;4.80;2.38;;;20.80;99.90;;;;;;5013599;23;20050;-83
2022/08/02 08:25:52;;;;;;;3.10;2.10;;;21.30;99.90;;;;;;4977275;28;20038;-82
2022/08/02 08:28:17;;;;;;;4.57;2.33;;;21.60;99.90;;;;;;4963807;28;20034;-82
2022/08/02 08:30:43;;;;;;;5.18;2.35;;;21.90;99.90;;;;;;4985057;28;20049;-83
2022/08/02 08:33:09;;;;;;;3.45;2.30;;;22.30;99.90;;;;;;4972987;28;20042;-83
2022/08/02 08:35:34;;;;;;;4.50;2.30;;;22.80;99.90;;;;;;4990465;28;20049;-83
2022/08/02 08:38:00;;;;;;;5.13;2.40;;;23.30;99.90;;;;;;4990712;28;20034;-83
2022/08/02 08:40:26;;;;;;;3.63;2.10;;;23.80;99.90;;;;;;4968752;28;20100;-83
2022/08/02 08:42:51;;;;;;;3.63;2.03;;;24.30;99.90;;;;;;4977187;28;20038;-82
2022/08/02 08:45:17;;;;;;;2.92;2.13;;;24.70;99.90;;;;;;4989267;28;20038;-84
2022/08/02 08:47:46;;;;;;;5.30;2.15;;;24.90;99.90;;;;;;4984610;28;20083;-83
2022/08/02 08:50:18;;;;;;;3.90;2.22;;;25.20;99.90;;;;;;4976662;28;20038;-83
2022/08/02 08:52:49;;;;;;;4.68;2.00;;;25.50;99.90;;;;;;4973606;28;20081;-83
2022/08/02 08:55:15;;;;;;;3.03;2.15;;;25.70;99.90;;;;;;4979317;28;20038;-83
2022/08/02 08:57:42;;;;;;;3.30;1.52;;;26.00;99.90;;;;;;4976409;28;20125;-83
2022/08/02 09:00:12;;;;;;;3.05;1.80;;;26.40;99.50;;;;;;4953727;28;20092;-83
2022/08/02 09:02:41;;;;;;;5.65;2.22;;;26.80;94.20;;;;;;4962503;28;20039;-83
2022/08/02 09:05:10;;;;;;;4.40;1.85;;;27.10;93.10;;;;;;4976493;28;20049;-83
2022/08/02 09:07:36;;;;;;;3.00;1.70;;;27.40;91.10;;;;;;4959926;28;20042;-83
2022/08/02 09:10:35;;;;;;;4.20;1.95;;;27.70;91.30;;;;;;4976238;28;20093;-81
2022/08/02 09:13:28;;;;;;;2.95;2.03;;;27.80;77.70;;;;;;4971113;28;20034;-81
2022/08/02 09:16:02;;;;;;;3.20;1.67;;;27.90;81.80;;;;;;4952614;28;20042;-82
2022/08/02 09:18:40;;;;;;;3.80;1.92;;;28.10;75.00;;;;;;4979388;28;20141;-81
2022/08/02 09:21:09;;;;;;;4.22;1.80;;;28.10;76.50;;;;;;4959906;28;20038;-81
2022/08/02 09:23:40;;;;;;;3.58;1.92;;;28.10;79.30;;;;;;4960106;28;20042;-81
2022/08/02 09:26:09;;;;;;;3.58;1.80;;;28.00;76.60;;;;;;4972285;28;20040;-81
2022/08/02 09:28:37;;;;;;;3.17;1.88;;;27.80;77.30;;;;;;4959472;28;20088;-80
2022/08/02 09:31:07;;;;;;;3.60;1.92;;;27.80;77.80;;;;;;4960156;28;20081;-80
2022/08/02 09:33:34;;;;;;;3.35;1.83;;;27.90;77.40;;;;;;4959644;28;20125;-80
2022/08/02 09:36:04;;;;;;;3.67;2.00;;;27.90;77.20;;;;;;4975700;28;20482;-80
2022/08/02 09:38:31;;;;;;;4.75;1.98;;;28.00;77.50;;;;;;4959396;28;20045;-79
2022/08/02 09:40:57;;;;;;;3.47;1.60;;;28.10;79.00;;;;;;4948573;28;20049;-80
2022/08/02 09:43:38;;;;;;;4.30;2.20;;;28.10;77.00;;;;;;4956507;28;20038;-80
2022/08/02 09:46:18;;;;;;;3.22;1.80;;;28.10;72.10;;;;;;4948723;28;20035;-79
2022/08/02 09:48:50;;;;;;;4.70;2.20;;;27.90;70.80;;;;;;4945664;28;20376;-80
2022/08/02 09:51:26;;;;;;;3.45;2.00;;;27.70;75.10;;;;;;4967048;28;20042;-82
2022/08/02 09:53:57;;;;;;;2.45;1.75;;;27.70;75.90;;;;;;4956120;28;20089;-83
2022/08/02 09:56:24;;;;;;;4.38;2.40;;;27.50;71.20;;;;;;4972179;28;20077;-82
2022/08/02 09:58:53;;;;;;;4.63;2.03;;;27.40;75.70;;;;;;4947279;28;20138;-80
2022/08/02 10:01:20;;;;;;;3.30;1.85;;;27.40;75.80;;;;;;4958458;28;20398;-80
2022/08/02 10:03:58;;;;;;;3.50;2.15;;;27.20;75.80;;;;;;4957092;28;20043;-80
2022/08/02 10:06:24;;;;;;;3.38;2.40;;;27.10;75.80;;;;;;4952054;28;20130;-81
2022/08/02 10:08:52;;;;;;;3.83;2.28;;;27.10;76.70;;;;;;4954468;28;20045;-80
2022/08/02 10:11:22;;;;;;;4.55;2.40;;;26.90;76.90;;;;;;4955123;28;20049;-80
2022/08/02 10:13:48;;;;;;;4.93;2.10;;;26.80;77.10;;;;;;4955415;28;20042;-80
2022/08/02 10:16:16;;;;;;;3.33;2.50;;;26.80;76.70;;;;;;4953779;28;20047;-81
2022/08/02 10:18:42;;;;;;;2.92;2.25;;;26.90;75.70;;;;;;4946267;28;20161;-81
2022/08/02 10:21:19;;;;;;;2.65;2.25;;;27.10;76.70;;;;;;4935717;28;20077;-81
2022/08/02 10:23:47;;;;;;;2.92;2.60;;;27.30;76.70;;;;;;4965562;28;20130;-82
2022/08/02 10:26:15;;;;;;;4.53;2.78;;;27.40;76.60;;;;;;4973195;28;20045;-82
2022/08/02 10:28:42;;;;;;;4.30;2.45;;;27.40;75.90;;;;;;4956450;28;20465;-81
2022/08/02 10:31:21;;;;;;;3.95;2.30;;;27.40;75.20;;;;;;4971708;28;20050;-83
2022/08/02 10:33:51;;;;;;;2.35;1.90;;;27.50;76.10;;;;;;4958718;28;20042;-84
2022/08/02 10:36:18;;;;;;;3.88;2.20;;;27.60;75.00;;;;;;4958089;28;20031;-82
2022/08/02 10:38:44;;;;;;;2.15;1.63;;;27.60;74.20;;;;;;4970543;28;20053;-82
2022/08/02 10:41:10;;;;;;;4.22;1.90;;;27.50;75.60;;;;;;4953817;28;20053;-83
2022/08/02 10:43:36;;;;;;;3.15;1.90;;;27.50;74.90;;;;;;4972441;28;20541;-82
2022/08/02 10:46:30;;;;;;;4.22;1.70;;;27.50;74.30;;;;;;4975272;28;20128;-83
2022/08/02 10:49:13;;;;;;;2.75;1.80;;;27.50;71.10;;;;;;4972473;28;20580;-83
2022/08/02 10:51:50;;;;;;;;;;;27.40;73.30;;;;;;4971284;28;20439;-83
2022/08/02 10:54:21;;;;;;;3.75;1.60;;;27.40;73.60;;;;;;4974602;28;20378;-85
2022/08/02 10:56:48;;;;;;;1.80;1.10;;;27.50;76.30;;;;;;4953674;28;20027;-84
2022/08/02 10:59:29;;;;;;;1.70;1.13;;;27.80;78.20;;;;;;4973266;28;20129;-81
2022/08/02 11:02:02;;;;;;;2.63;1.27;;;28.10;76.70;;;;;;4956066;28;20121;-80
2022/08/02 11:04:40;;;;;;;1.90;0.88;;;28.40;77.00;;;;;;4950816;28;20495;-80
2022/08/02 11:07:18;;;;;;;1.85;1.50;;;28.60;73.50;;;;;;4972143;28;20088;-81
2022/08/02 11:09:52;;;;;;;2.25;1.88;;;28.70;75.10;;;;;;4982068;28;20038;-81
2022/08/02 11:12:20;;;;;;;3.03;1.85;;;28.90;75.50;;;;;;4970347;28;20042;-81
2022/08/02 11:15:02;;;;;;;3.03;2.25;;;28.90;76.80;;;;;;4965519;28;20125;-83
2022/08/02 11:17:48;;;;;;;;;;;28.90;71.90;;;;;;4961207;28;20038;-81
2022/08/02 11:20:15;;;;;;;2.58;2.10;;;28.80;71.10;;;;;;4950293;28;19918;-81
2022/08/02 11:22:43;;;;;;;4.15;2.47;;;28.70;77.40;;;;;;4959179;28;20566;-81
2022/08/02 11:25:21;;;;;;;2.65;2.28;;;28.80;77.50;;;;;;4965410;28;20031;-78
2022/08/02 11:27:59;;;;;;;3.60;2.80;;;29.00;76.40;;;;;;4956773;28;20118;-78
2022/08/02 11:30:26;;;;;;;7.28;3.20;;;29.20;77.00;;;;;;4974183;28;20042;-78
2022/08/02 11:32:57;;;;;;;4.32;3.35;;;29.20;77.90;;;;;;4978392;28;20393;-79
2022/08/02 11:35:30;;;;;;;6.22;3.55;;;29.30;76.70;;;;;;4966671;28;20060;-78
2022/08/02 11:37:57;;;;;;;4.38;3.50;;;29.30;77.50;;;;;;4973227;28;20113;-77
2022/08/02 11:40:23;;;;;;;6.28;3.47;;;29.30;77.40;;;;;;4958613;28;20434;-78
2022/08/02 11:42:49;;;;;;;6.00;3.95;;;29.20;77.60;;;;;;4973287;28;20038;-77
2022/08/02 11:45:15;;;;;;;4.05;2.90;;;29.20;77.10;;;;;;4957454;28;20046;-78
2022/08/02 11:47:49;;;;;;;5.95;3.80;;;29.20;77.70;;;;;;4972316;28;20043;-79
2022/08/02 11:50:17;;;;;;;4.32;3.60;;;29.10;77.40;;;;;;4974821;28;20042;-77
2022/08/02 11:52:43;;;;;;;4.15;3.40;;;29.20;78.50;;;;;;4974802;28;20038;-77
2022/08/02 11:55:10;;;;;;;4.43;3.40;;;29.20;77.80;;;;;;4978135;28;20057;-80
2022/08/02 11:57:37;;;;;;;7.40;3.20;;;29.30;77.40;;;;;;4971271;28;20038;-80
2022/08/02 12:00:13;;;;;;;3.08;2.58;;;29.20;76.40;;;;;;4966735;28;20371;-81
2022/08/02 12:02:46;;;;;;;2.60;2.10;;;29.20;77.00;;;;;;4935955;28;20082;-81
2022/08/02 12:05:16;;;;;;;2.10;1.70;;;29.20;75.90;;;;;;4955008;28;20483;-81
2022/08/02 12:07:43;;;;;;;2.03;1.30;;;29.10;75.80;;;;;;4956500;28;20394;-81
2022/08/02 12:10:15;;;;;;;2.00;1.70;;;29.00;75.40;;;;;;4959073;28;20393;-81
2022/08/02 12:12:55;;;;;;;2.47;1.80;;;28.80;74.70;;;;;;4949658;28;20483;-82
2022/08/02 12:15:39;;;;;;;4.80;1.90;;;28.80;75.20;;;;;;4942075;28;20045;-80
2022/08/02 12:20:53;;;;;;;4.10;2.63;;;28.70;76.00;;;;;;4976892;28;20446;-80
2022/08/02 12:23:19;;;;;;;3.22;2.17;;;28.70;76.30;;;;;;4975406;28;20039;-81
2022/08/02 12:25:44;;;;;;;3.05;2.40;;;28.50;76.30;;;;;;4958276;28;20066;-81
2022/08/02 12:28:24;;;;;;;3.55;2.25;;;28.30;76.30;;;;;;4972316;28;20039;-81
2022/08/02 12:30:58;;;;;;;5.60;2.30;;;28.10;74.50;;;;;;4960097;28;20126;-81
2022/08/02 12:33:27;;;;;;;3.17;2.40;;;27.90;76.80;;;;;;4961125;28;20522;-81
2022/08/02 12:35:55;;;;;;;2.90;2.40;;;27.80;77.80;;;;;;4975314;28;20058;-80
2022/08/02 12:38:21;;;;;;;3.67;2.95;;;27.60;77.70;;;;;;4974467;28;20581;-79
2022/08/02 12:40:47;;;;;;;5.28;2.78;;;27.50;79.00;;;;;;4979789;28;20117;-80
2022/08/02 12:43:31;;;;;;;3.95;3.00;;;27.40;79.20;;;;;;4952904;28;20054;-79
2022/08/02 12:45:57;;;;;;;3.10;2.50;;;27.30;78.10;;;;;;4968494;28;20046;-80
2022/08/02 12:48:35;;;;;;;4.50;2.88;;;27.10;79.60;;;;;;4958677;28;20521;-79
2022/08/02 12:51:19;;;;;;;3.88;3.45;;;26.90;79.70;;;;;;4959965;28;20125;-79
2022/08/02 12:53:45;;;;;;;8.13;3.30;;;26.70;79.10;;;;;;4981587;28;20047;-79
2022/08/02 12:56:10;;;;;;;4.40;3.47;;;26.60;81.00;;;;;;4975950;28;20045;-80
2022/08/02 12:58:48;;;;;;;5.03;3.72;;;26.60;81.80;;;;;;4960074;28;20045;-79
2022/08/02 13:01:23;;;;;;;5.22;4.03;;;26.50;82.30;;;;;;4960072;28;20394;-80